sensor_id;sensor_type;location;lat;lon;timestamp;pressure;altitude;pressure_sealevel;temperature;humidity
62544;BME280;48597;49.030;1.822;2023-03-12T00:00:15;100187.94;;;20.78;36.52
62544;BME280;48597;49.030;1.822;2023-03-12T00:02:41;100184.13;;;20.81;36.64
62544;BME280;48597;49.030;1.822;2023-03-12T00:05:06;100185.25;;;20.84;36.39
62544;BME280;48597;49.030;1.822;2023-03-12T00:07:32;100190.53;;;20.85;36.64
62544;BME280;48597;49.030;1.822;2023-03-12T00:09:57;100192.91;;;20.87;36.78
62544;BME280;48597;49.030;1.822;2023-03-12T00:12:23;100185.13;;;20.87;36.81
62544;BME280;48597;49.030;1.822;2023-03-12T00:14:48;100188.31;;;20.89;36.75
62544;BME280;48597;49.030;1.822;2023-03-12T00:17:13;100190.69;;;20.91;36.59
62544;BME280;48597;49.030;1.822;2023-03-12T00:19:39;100195.94;;;20.92;36.74
62544;BME280;48597;49.030;1.822;2023-03-12T00:22:04;100199.94;;;20.95;36.67
62544;BME280;48597;49.030;1.822;2023-03-12T00:24:29;100197.06;;;20.95;36.57
62544;BME280;48597;49.030;1.822;2023-03-12T00:26:55;100199.78;;;20.98;36.48
62544;BME280;48597;49.030;1.822;2023-03-12T00:29:20;100202.66;;;20.98;36.57
62544;BME280;48597;49.030;1.822;2023-03-12T00:31:45;100195.19;;;21.01;36.54
62544;BME280;48597;49.030;1.822;2023-03-12T00:34:11;100192.63;;;21.03;36.36
62544;BME280;48597;49.030;1.822;2023-03-12T00:36:37;100196.25;;;21.03;36.45
62544;BME280;48597;49.030;1.822;2023-03-12T00:39:04;100192.94;;;21.05;36.56
62544;BME280;48597;49.030;1.822;2023-03-12T00:41:30;100186.72;;;21.07;36.43
62544;BME280;48597;49.030;1.822;2023-03-12T00:43:56;100186.56;;;21.10;36.22
62544;BME280;48597;49.030;1.822;2023-03-12T00:46:21;100192.63;;;21.12;36.32
62544;BME280;48597;49.030;1.822;2023-03-12T00:48:47;100194.22;;;21.13;36.29
62544;BME280;48597;49.030;1.822;2023-03-12T00:51:12;100195.81;;;21.14;36.39
62544;BME280;48597;49.030;1.822;2023-03-12T00:53:38;100194.22;;;21.13;36.42
62544;BME280;48597;49.030;1.822;2023-03-12T00:56:04;100206.50;;;21.14;36.37
62544;BME280;48597;49.030;1.822;2023-03-12T00:58:30;100203.31;;;21.12;36.31
62544;BME280;48597;49.030;1.822;2023-03-12T01:00:55;100210.31;;;21.11;36.33
62544;BME280;48597;49.030;1.822;2023-03-12T01:03:21;100205.84;;;21.10;36.54
62544;BME280;48597;49.030;1.822;2023-03-12T01:05:46;100213.97;;;21.11;36.46
62544;BME280;48597;49.030;1.822;2023-03-12T01:08:18;100221.28;;;21.12;36.29
62544;BME280;48597;49.030;1.822;2023-03-12T01:10:44;100222.09;;;21.13;36.57
62544;BME280;48597;49.030;1.822;2023-03-12T01:13:09;100220.50;;;21.12;36.32
62544;BME280;48597;49.030;1.822;2023-03-12T01:15:35;100220.50;;;21.12;36.39
62544;BME280;48597;49.030;1.822;2023-03-12T01:18:00;100217.63;;;21.12;36.30
62544;BME280;48597;49.030;1.822;2023-03-12T01:20:25;100222.56;;;21.11;36.36
62544;BME280;48597;49.030;1.822;2023-03-12T01:22:52;100233.56;;;21.13;36.40
62544;BME280;48597;49.030;1.822;2023-03-12T01:25:17;100231.16;;;21.11;36.27
62544;BME280;48597;49.030;1.822;2023-03-12T01:27:44;100229.09;;;21.12;36.30
62544;BME280;48597;49.030;1.822;2023-03-12T01:30:10;100224.16;;;21.12;36.32
62544;BME280;48597;49.030;1.822;2023-03-12T01:32:35;100222.09;;;21.13;36.23
62544;BME280;48597;49.030;1.822;2023-03-12T01:35:01;100222.41;;;21.15;36.18
62544;BME280;48597;49.030;1.822;2023-03-12T01:37:27;100217.47;;;21.15;36.35
62544;BME280;48597;49.030;1.822;2023-03-12T01:39:53;100219.06;;;21.16;36.37
62544;BME280;48597;49.030;1.822;2023-03-12T01:42:18;100223.22;;;21.15;36.28
62544;BME280;48597;49.030;1.822;2023-03-12T01:45:03;100217.34;;;21.19;36.15
62544;BME280;48597;49.030;1.822;2023-03-12T01:47:29;100215.72;;;21.18;36.18
62544;BME280;48597;49.030;1.822;2023-03-12T01:49:59;100199.31;;;21.18;36.23
62544;BME280;48597;49.030;1.822;2023-03-12T01:52:31;100205.88;;;21.19;36.21
62544;BME280;48597;49.030;1.822;2023-03-12T01:55:13;100216.06;;;21.20;36.20
62544;BME280;48597;49.030;1.822;2023-03-12T01:57:54;100203.00;;;21.19;36.11
62544;BME280;48597;49.030;1.822;2023-03-12T02:00:24;100209.19;;;21.17;36.29
62544;BME280;48597;49.030;1.822;2023-03-12T02:02:51;100207.91;;;21.18;36.24
62544;BME280;48597;49.030;1.822;2023-03-12T02:05:26;100212.03;;;21.17;36.36
62544;BME280;48597;49.030;1.822;2023-03-12T02:07:53;100214.13;;;21.17;36.36
62544;BME280;48597;49.030;1.822;2023-03-12T02:10:20;100217.78;;;21.17;36.38
62544;BME280;48597;49.030;1.822;2023-03-12T02:12:45;100223.50;;;21.17;36.38
62544;BME280;48597;49.030;1.822;2023-03-12T02:15:11;100216.97;;;21.17;36.20
62544;BME280;48597;49.030;1.822;2023-03-12T02:17:37;100220.19;;;21.19;36.27
62544;BME280;48597;49.030;1.822;2023-03-12T02:20:19;100213.66;;;21.18;36.31
62544;BME280;48597;49.030;1.822;2023-03-12T02:23:07;100213.19;;;21.20;36.22
62544;BME280;48597;49.030;1.822;2023-03-12T02:25:37;100214.78;;;21.21;36.39
62544;BME280;48597;49.030;1.822;2023-03-12T02:28:07;100227.06;;;21.21;36.23
62544;BME280;48597;49.030;1.822;2023-03-12T02:30:34;100220.06;;;21.22;36.21
62544;BME280;48597;49.030;1.822;2023-03-12T02:33:02;100224.19;;;21.21;36.14
62544;BME280;48597;49.030;1.822;2023-03-12T02:35:29;100219.25;;;21.22;36.27
62544;BME280;48597;49.030;1.822;2023-03-12T02:37:55;100230.72;;;21.22;36.35
62544;BME280;48597;49.030;1.822;2023-03-12T02:40:34;100231.06;;;21.24;36.16
62544;BME280;48597;49.030;1.822;2023-03-12T02:43:02;100224.53;;;21.23;36.40
62544;BME280;48597;49.030;1.822;2023-03-12T02:45:30;100227.06;;;21.21;36.26
62544;BME280;48597;49.030;1.822;2023-03-12T02:47:56;100236.47;;;21.22;36.18
62544;BME280;48597;49.030;1.822;2023-03-12T02:50:21;100235.19;;;21.23;36.34
62544;BME280;48597;49.030;1.822;2023-03-12T02:52:47;100245.06;;;21.22;36.43
62544;BME280;48597;49.030;1.822;2023-03-12T02:55:12;100240.13;;;21.22;36.31
62544;BME280;48597;49.030;1.822;2023-03-12T02:57:37;100237.25;;;21.22;36.33
62544;BME280;48597;49.030;1.822;2023-03-12T03:00:07;100236.47;;;21.22;36.40
62544;BME280;48597;49.030;1.822;2023-03-12T03:02:38;100228.66;;;21.22;36.50
62544;BME280;48597;49.030;1.822;2023-03-12T03:05:03;100218.31;;;21.25;36.25
62544;BME280;48597;49.030;1.822;2023-03-12T03:07:29;100225.31;;;21.24;36.33
62544;BME280;48597;49.030;1.822;2023-03-12T03:09:54;100229.78;;;21.25;36.24
62544;BME280;48597;49.030;1.822;2023-03-12T03:12:20;100232.97;;;21.27;36.23
62544;BME280;48597;49.030;1.822;2023-03-12T03:14:47;100230.09;;;21.27;36.23
62544;BME280;48597;49.030;1.822;2023-03-12T03:17:12;100234.25;;;21.26;36.17
62544;BME280;48597;49.030;1.822;2023-03-12T03:19:38;100236.63;;;21.27;36.36
62544;BME280;48597;49.030;1.822;2023-03-12T03:22:03;100231.69;;;21.28;36.37
62544;BME280;48597;49.030;1.822;2023-03-12T03:24:29;100241.09;;;21.28;36.34
62544;BME280;48597;49.030;1.822;2023-03-12T03:26:54;100243.16;;;21.28;36.22
62544;BME280;48597;49.030;1.822;2023-03-12T03:29:20;100252.56;;;21.28;36.30
62544;BME280;48597;49.030;1.822;2023-03-12T03:31:45;100254.63;;;21.28;35.95
62544;BME280;48597;49.030;1.822;2023-03-12T03:34:11;100250.97;;;21.27;36.26
62544;BME280;48597;49.030;1.822;2023-03-12T03:36:36;100250.50;;;21.29;36.33
62544;BME280;48597;49.030;1.822;2023-03-12T03:39:02;100256.22;;;21.29;36.34
62544;BME280;48597;49.030;1.822;2023-03-12T03:41:29;100259.88;;;21.29;36.21
62544;BME280;48597;49.030;1.822;2023-03-12T03:43:56;100257.78;;;21.30;36.26
62544;BME280;48597;49.030;1.822;2023-03-12T03:46:23;100264.81;;;21.29;36.36
62544;BME280;48597;49.030;1.822;2023-03-12T03:48:48;100267.69;;;21.29;36.31
62544;BME280;48597;49.030;1.822;2023-03-12T03:51:15;100261.97;;;21.29;36.20
62544;BME280;48597;49.030;1.822;2023-03-12T03:53:40;100275.00;;;21.30;36.35
62544;BME280;48597;49.030;1.822;2023-03-12T03:56:15;100277.88;;;21.30;36.25
62544;BME280;48597;49.030;1.822;2023-03-12T03:58:41;100292.19;;;21.30;36.12
62544;BME280;48597;49.030;1.822;2023-03-12T04:01:06;100293.78;;;21.31;36.20
62544;BME280;48597;49.030;1.822;2023-03-12T04:03:32;100296.66;;;21.31;36.38
62544;BME280;48597;49.030;1.822;2023-03-12T04:06:00;100292.19;;;21.30;36.33
62544;BME280;48597;49.030;1.822;2023-03-12T04:08:26;100292.19;;;21.30;36.12
62544;BME280;48597;49.030;1.822;2023-03-12T04:10:53;100304.47;;;21.30;36.32
62544;BME280;48597;49.030;1.822;2023-03-12T04:13:18;100303.66;;;21.30;36.18
62544;BME280;48597;49.030;1.822;2023-03-12T04:15:49;100305.25;;;21.31;36.16
62544;BME280;48597;49.030;1.822;2023-03-12T04:18:16;100297.94;;;21.30;36.10
62544;BME280;48597;49.030;1.822;2023-03-12T04:20:42;100308.13;;;21.31;36.14
62544;BME280;48597;49.030;1.822;2023-03-12T04:23:07;100311.00;;;21.31;36.14
62544;BME280;48597;49.030;1.822;2023-03-12T04:25:33;100321.66;;;21.30;36.16
62544;BME280;48597;49.030;1.822;2023-03-12T04:27:58;100322.47;;;21.31;36.34
62544;BME280;48597;49.030;1.822;2023-03-12T04:30:24;100330.25;;;21.30;36.35
62544;BME280;48597;49.030;1.822;2023-03-12T04:32:49;100339.66;;;21.31;36.19
62544;BME280;48597;49.030;1.822;2023-03-12T04:35:14;100338.38;;;21.32;36.25
62544;BME280;48597;49.030;1.822;2023-03-12T04:37:40;100343.31;;;21.31;36.09
62544;BME280;48597;49.030;1.822;2023-03-12T04:40:05;100345.38;;;21.31;36.27
62544;BME280;48597;49.030;1.822;2023-03-12T04:42:35;100354.78;;;21.31;36.21
62544;BME280;48597;49.030;1.822;2023-03-12T04:45:02;100346.19;;;21.31;36.24
62544;BME280;48597;49.030;1.822;2023-03-12T04:47:29;100336.78;;;21.31;36.04
62544;BME280;48597;49.030;1.822;2023-03-12T04:49:55;100338.84;;;21.30;36.20
62544;BME280;48597;49.030;1.822;2023-03-12T04:52:20;100336.31;;;21.32;36.11
62544;BME280;48597;49.030;1.822;2023-03-12T04:54:46;100329.00;;;21.31;36.34
62544;BME280;48597;49.030;1.822;2023-03-12T04:57:11;100334.25;;;21.33;36.33
62544;BME280;48597;49.030;1.822;2023-03-12T04:59:36;100338.38;;;21.32;36.19
62544;BME280;48597;49.030;1.822;2023-03-12T05:02:02;100348.25;;;21.31;36.20
62544;BME280;48597;49.030;1.822;2023-03-12T05:04:27;100349.06;;;21.31;36.21
62544;BME280;48597;49.030;1.822;2023-03-12T05:06:53;100355.59;;;21.32;36.29
62544;BME280;48597;49.030;1.822;2023-03-12T05:09:19;100358.47;;;21.32;36.30
62544;BME280;48597;49.030;1.822;2023-03-12T05:11:45;100354.00;;;21.31;36.17
62544;BME280;48597;49.030;1.822;2023-03-12T05:14:11;100356.84;;;21.31;36.24
62544;BME280;48597;49.030;1.822;2023-03-12T05:16:36;100365.00;;;21.32;36.24
62544;BME280;48597;49.030;1.822;2023-03-12T05:19:02;100360.53;;;21.31;36.10
62544;BME280;48597;49.030;1.822;2023-03-12T05:21:28;100361.78;;;21.30;36.16
62544;BME280;48597;49.030;1.822;2023-03-12T05:23:54;100362.13;;;21.32;36.27
62544;BME280;48597;49.030;1.822;2023-03-12T05:26:22;100374.38;;;21.33;36.08
62544;BME280;48597;49.030;1.822;2023-03-12T05:28:48;100374.84;;;21.31;36.28
62544;BME280;48597;49.030;1.822;2023-03-12T05:31:14;100376.47;;;21.32;36.17
62544;BME280;48597;49.030;1.822;2023-03-12T05:33:40;100385.53;;;21.31;36.22
62544;BME280;48597;49.030;1.822;2023-03-12T05:36:07;100378.53;;;21.32;36.32
62544;BME280;48597;49.030;1.822;2023-03-12T05:38:32;100374.38;;;21.33;36.27
62544;BME280;48597;49.030;1.822;2023-03-12T05:40:58;100383.78;;;21.33;36.38
62544;BME280;48597;49.030;1.822;2023-03-12T05:43:25;100388.25;;;21.34;36.19
62544;BME280;48597;49.030;1.822;2023-03-12T05:45:51;100375.97;;;21.34;36.31
62544;BME280;48597;49.030;1.822;2023-03-12T05:48:17;100376.47;;;21.32;36.28
62544;BME280;48597;49.030;1.822;2023-03-12T05:50:43;100387.91;;;21.32;36.28
62544;BME280;48597;49.030;1.822;2023-03-12T05:53:09;100388.72;;;21.33;36.20
62544;BME280;48597;49.030;1.822;2023-03-12T05:55:37;100405.91;;;21.33;36.25
62544;BME280;48597;49.030;1.822;2023-03-12T05:58:04;100410.38;;;21.34;36.35
62544;BME280;48597;49.030;1.822;2023-03-12T06:00:31;100417.38;;;21.33;36.32
62544;BME280;48597;49.030;1.822;2023-03-12T06:02:57;100418.19;;;21.33;36.25
62544;BME280;48597;49.030;1.822;2023-03-12T06:05:22;100423.13;;;21.33;36.24
62544;BME280;48597;49.030;1.822;2023-03-12T06:07:48;100420.59;;;21.35;36.25
62544;BME280;48597;49.030;1.822;2023-03-12T06:10:13;100421.84;;;21.34;36.51
62544;BME280;48597;49.030;1.822;2023-03-12T06:12:39;100431.25;;;21.34;36.23
62544;BME280;48597;49.030;1.822;2023-03-12T06:15:05;100426.78;;;21.33;36.49
62544;BME280;48597;49.030;1.822;2023-03-12T06:17:30;100419.78;;;21.34;36.31
62544;BME280;48597;49.030;1.822;2023-03-12T06:19:56;100419.00;;;21.34;36.35
62544;BME280;48597;49.030;1.822;2023-03-12T06:22:22;100424.72;;;21.34;36.26
62544;BME280;48597;49.030;1.822;2023-03-12T06:24:47;100421.84;;;21.34;36.28
62544;BME280;48597;49.030;1.822;2023-03-12T06:27:13;100411.66;;;21.33;36.22
62544;BME280;48597;49.030;1.822;2023-03-12T06:29:39;100410.38;;;21.34;36.36
62544;BME280;48597;49.030;1.822;2023-03-12T06:32:05;100406.25;;;21.35;36.65
62544;BME280;48597;49.030;1.822;2023-03-12T06:34:31;100421.84;;;21.34;36.20
62544;BME280;48597;49.030;1.822;2023-03-12T06:36:56;100435.38;;;21.33;36.28
62544;BME280;48597;49.030;1.822;2023-03-12T06:39:22;100449.25;;;21.35;36.25
62544;BME280;48597;49.030;1.822;2023-03-12T06:41:47;100455.00;;;21.35;36.35
62544;BME280;48597;49.030;1.822;2023-03-12T06:44:12;100444.78;;;21.34;36.46
62544;BME280;48597;49.030;1.822;2023-03-12T06:46:38;100456.25;;;21.34;36.52
62544;BME280;48597;49.030;1.822;2023-03-12T06:49:03;100452.13;;;21.35;36.22
62544;BME280;48597;49.030;1.822;2023-03-12T06:51:29;100453.38;;;21.34;36.25
62544;BME280;48597;49.030;1.822;2023-03-12T06:53:54;100436.19;;;21.34;36.25
62544;BME280;48597;49.030;1.822;2023-03-12T06:56:19;100445.59;;;21.34;36.32
62544;BME280;48597;49.030;1.822;2023-03-12T06:58:45;100453.38;;;21.34;36.09
62544;BME280;48597;49.030;1.822;2023-03-12T07:01:10;100444.31;;;21.35;36.33
62544;BME280;48597;49.030;1.822;2023-03-12T07:03:36;100434.91;;;21.35;36.30
62544;BME280;48597;49.030;1.822;2023-03-12T07:06:01;100453.38;;;21.34;36.35
62544;BME280;48597;49.030;1.822;2023-03-12T07:08:27;100448.47;;;21.34;36.34
62544;BME280;48597;49.030;1.822;2023-03-12T07:10:56;100448.47;;;21.34;36.52
62544;BME280;48597;49.030;1.822;2023-03-12T07:13:21;100442.72;;;21.34;36.22
62544;BME280;48597;49.030;1.822;2023-03-12T07:15:47;100444.31;;;21.35;36.30
62544;BME280;48597;49.030;1.822;2023-03-12T07:18:13;100450.06;;;21.35;36.07
62544;BME280;48597;49.030;1.822;2023-03-12T07:20:40;100447.19;;;21.35;36.46
62544;BME280;48597;49.030;1.822;2023-03-12T07:23:06;100465.19;;;21.36;36.33
62544;BME280;48597;49.030;1.822;2023-03-12T07:25:36;100498.78;;;21.35;36.26
62544;BME280;48597;49.030;1.822;2023-03-12T07:28:02;100488.59;;;21.34;36.27
62544;BME280;48597;49.030;1.822;2023-03-12T07:30:28;100480.78;;;21.35;36.38
62544;BME280;48597;49.030;1.822;2023-03-12T07:33:00;100483.66;;;21.35;36.48
62544;BME280;48597;49.030;1.822;2023-03-12T07:35:27;100487.31;;;21.35;36.43
62544;BME280;48597;49.030;1.822;2023-03-12T07:37:52;100498.00;;;21.35;36.21
62544;BME280;48597;49.030;1.822;2023-03-12T07:40:18;100480.00;;;21.34;36.58
62544;BME280;48597;49.030;1.822;2023-03-12T07:42:43;100472.66;;;21.33;36.46
62544;BME280;48597;49.030;1.822;2023-03-12T07:45:09;100483.66;;;21.35;36.65
62544;BME280;48597;49.030;1.822;2023-03-12T07:47:34;100506.25;;;21.33;36.33
62544;BME280;48597;49.030;1.822;2023-03-12T07:50:00;100500.06;;;21.34;36.49
62544;BME280;48597;49.030;1.822;2023-03-12T07:52:26;100503.41;;;21.33;36.51
62544;BME280;48597;49.030;1.822;2023-03-12T07:54:51;100509.94;;;21.33;36.49
62544;BME280;48597;49.030;1.822;2023-03-12T07:57:18;100494.31;;;21.34;36.41
62544;BME280;48597;49.030;1.822;2023-03-12T07:59:44;100493.53;;;21.34;36.61
62544;BME280;48597;49.030;1.822;2023-03-12T08:02:10;100490.66;;;21.34;36.53
62544;BME280;48597;49.030;1.822;2023-03-12T08:04:35;100485.72;;;21.34;36.51
62544;BME280;48597;49.030;1.822;2023-03-12T08:07:01;100472.53;;;21.37;36.50
62544;BME280;48597;49.030;1.822;2023-03-12T08:09:26;100484.31;;;21.39;36.36
62544;BME280;48597;49.030;1.822;2023-03-12T08:11:53;100482.25;;;21.39;36.41
62544;BME280;48597;49.030;1.822;2023-03-12T08:14:18;100472.84;;;21.39;36.88
62544;BME280;48597;49.030;1.822;2023-03-12T08:16:44;100480.66;;;21.38;36.98
62544;BME280;48597;49.030;1.822;2023-03-12T08:19:09;100476.34;;;21.43;37.26
62544;BME280;48597;49.030;1.822;2023-03-12T08:21:34;100483.09;;;21.49;37.33
62544;BME280;48597;49.030;1.822;2023-03-12T08:24:00;100484.03;;;21.46;37.26
62544;BME280;48597;49.030;1.822;2023-03-12T08:26:25;100501.38;;;21.43;37.21
62544;BME280;48597;49.030;1.822;2023-03-12T08:28:50;100519.06;;;21.41;37.44
62544;BME280;48597;49.030;1.822;2023-03-12T08:31:16;100514.59;;;21.40;37.36
62544;BME280;48597;49.030;1.822;2023-03-12T08:33:41;100523.66;;;21.38;37.72
62544;BME280;48597;49.030;1.822;2023-03-12T08:36:08;100531.00;;;21.39;37.57
62544;BME280;48597;49.030;1.822;2023-03-12T08:38:34;100534.19;;;21.42;37.60
62544;BME280;48597;49.030;1.822;2023-03-12T08:41:00;100533.41;;;21.41;37.73
62544;BME280;48597;49.030;1.822;2023-03-12T08:43:26;100540.41;;;21.40;37.81
62544;BME280;48597;49.030;1.822;2023-03-12T08:46:02;100549.00;;;21.40;37.92
62544;BME280;48597;49.030;1.822;2023-03-12T08:48:29;100547.41;;;21.39;37.69
62544;BME280;48597;49.030;1.822;2023-03-12T08:50:56;100547.75;;;21.41;37.82
62544;BME280;48597;49.030;1.822;2023-03-12T08:53:22;100550.44;;;21.45;37.88
62544;BME280;48597;49.030;1.822;2023-03-12T08:55:48;100547.56;;;21.45;37.65
62544;BME280;48597;49.030;1.822;2023-03-12T08:58:13;100551.72;;;21.44;38.08
62544;BME280;48597;49.030;1.822;2023-03-12T09:00:38;100552.97;;;21.43;38.17
62544;BME280;48597;49.030;1.822;2023-03-12T09:03:04;100553.13;;;21.39;38.51
62544;BME280;48597;49.030;1.822;2023-03-12T09:05:30;100557.28;;;21.38;38.41
62544;BME280;48597;49.030;1.822;2023-03-12T09:07:56;100562.22;;;21.37;38.21
62544;BME280;48597;49.030;1.822;2023-03-12T09:10:21;100555.34;;;21.35;38.09
62544;BME280;48597;49.030;1.822;2023-03-12T09:12:47;100558.19;;;21.35;38.31
62544;BME280;48597;49.030;1.822;2023-03-12T09:15:13;100568.06;;;21.34;38.16
62544;BME280;48597;49.030;1.822;2023-03-12T09:17:38;100563.13;;;21.34;38.22
62544;BME280;48597;49.030;1.822;2023-03-12T09:20:05;100552.94;;;21.33;38.03
62544;BME280;48597;49.030;1.822;2023-03-12T09:22:35;100562.34;;;21.34;38.24
62544;BME280;48597;49.030;1.822;2023-03-12T09:25:05;100564.88;;;21.32;38.16
62544;BME280;48597;49.030;1.822;2023-03-12T09:27:36;100555.00;;;21.33;38.62
62544;BME280;48597;49.030;1.822;2023-03-12T09:30:01;100557.88;;;21.33;38.41
62544;BME280;48597;49.030;1.822;2023-03-12T09:32:27;100560.72;;;21.33;38.29
62544;BME280;48597;49.030;1.822;2023-03-12T09:34:53;100559.13;;;21.32;38.32
62544;BME280;48597;49.030;1.822;2023-03-12T09:37:19;100555.00;;;21.33;38.43
62544;BME280;48597;49.030;1.822;2023-03-12T09:39:44;100553.06;;;21.30;38.35
62544;BME280;48597;49.030;1.822;2023-03-12T09:42:22;100547.31;;;21.30;37.98
62544;BME280;48597;49.030;1.822;2023-03-12T09:44:49;100552.25;;;21.29;38.21
62544;BME280;48597;49.030;1.822;2023-03-12T09:49:54;100560.41;;;21.31;38.18
62544;BME280;48597;49.030;1.822;2023-03-12T09:52:35;100559.13;;;21.32;38.30
62544;BME280;48597;49.030;1.822;2023-03-12T09:57:35;100556.25;;;21.32;38.88
62544;BME280;48597;49.030;1.822;2023-03-12T10:00:01;100560.72;;;21.33;39.09
62544;BME280;48597;49.030;1.822;2023-03-12T10:08:03;100568.88;;;21.34;39.30
62544;BME280;48597;49.030;1.822;2023-03-12T10:16:26;100569.66;;;21.35;39.16
62544;BME280;48597;49.030;1.822;2023-03-12T10:27:28;100569.66;;;21.35;38.85
62544;BME280;48597;49.030;1.822;2023-03-12T10:29:54;100574.13;;;21.36;39.02
62544;BME280;48597;49.030;1.822;2023-03-12T10:32:29;100567.13;;;21.37;39.00
62544;BME280;48597;49.030;1.822;2023-03-12T10:35:16;100571.28;;;21.36;38.84
62544;BME280;48597;49.030;1.822;2023-03-12T10:37:56;100566.34;;;21.36;38.70
62544;BME280;48597;49.030;1.822;2023-03-12T10:40:30;100558.19;;;21.35;38.86
62544;BME280;48597;49.030;1.822;2023-03-12T10:42:58;100564.75;;;21.35;38.80
62544;BME280;48597;49.030;1.822;2023-03-12T10:45:38;100560.28;;;21.34;38.79
62544;BME280;48597;49.030;1.822;2023-03-12T10:48:07;100559.47;;;21.34;38.93
62544;BME280;48597;49.030;1.822;2023-03-12T10:50:35;100563.13;;;21.34;38.91
62544;BME280;48597;49.030;1.822;2023-03-12T10:53:27;100564.06;;;21.31;38.82
62544;BME280;48597;49.030;1.822;2023-03-12T10:56:19;100552.59;;;21.31;38.77
62544;BME280;48597;49.030;1.822;2023-03-12T10:58:50;100559.59;;;21.30;38.99
62544;BME280;48597;49.030;1.822;2023-03-12T11:01:30;100557.22;;;21.29;38.76
62544;BME280;48597;49.030;1.822;2023-03-12T11:04:23;100555.63;;;21.28;39.14
62544;BME280;48597;49.030;1.822;2023-03-12T11:07:05;100556.44;;;21.28;38.77
62544;BME280;48597;49.030;1.822;2023-03-12T11:09:31;100555.28;;;21.26;39.21
62544;BME280;48597;49.030;1.822;2023-03-12T11:11:56;100569.63;;;21.26;38.89
62544;BME280;48597;49.030;1.822;2023-03-12T11:14:26;100561.50;;;21.24;38.96
62544;BME280;48597;49.030;1.822;2023-03-12T11:16:53;100568.47;;;21.23;38.88
62544;BME280;48597;49.030;1.822;2023-03-12T11:19:31;100567.69;;;21.23;38.79
62544;BME280;48597;49.030;1.822;2023-03-12T11:22:04;100565.28;;;21.21;39.02
62544;BME280;48597;49.030;1.822;2023-03-12T11:24:56;100555.88;;;21.21;38.98
62544;BME280;48597;49.030;1.822;2023-03-12T11:27:32;100554.28;;;21.20;39.01
62544;BME280;48597;49.030;1.822;2023-03-12T11:30:03;100564.16;;;21.19;39.02
62544;BME280;48597;49.030;1.822;2023-03-12T11:32:33;100555.53;;;21.19;39.18
62544;BME280;48597;49.030;1.822;2023-03-12T11:35:00;100558.03;;;21.17;39.11
62544;BME280;48597;49.030;1.822;2023-03-12T11:42:40;100554.06;;;21.14;39.04
62544;BME280;48597;49.030;1.822;2023-03-12T11:48:18;100559.47;;;21.12;39.08
62544;BME280;48597;49.030;1.822;2023-03-12T11:51:00;100567.25;;;21.12;39.09
62544;BME280;48597;49.030;1.822;2023-03-12T12:09:35;100538.84;;;21.04;39.27
62544;BME280;48597;49.030;1.822;2023-03-12T12:20:20;100515.63;;;21.02;39.45
62544;BME280;48597;49.030;1.822;2023-03-12T12:23:07;100514.03;;;21.01;39.52
62544;BME280;48597;49.030;1.822;2023-03-12T12:26:12;100512.44;;;21.00;39.59
62544;BME280;48597;49.030;1.822;2023-03-12T12:32:08;100500.63;;;20.98;39.58
62544;BME280;48597;49.030;1.822;2023-03-12T12:39:49;100516.22;;;20.97;40.01
62544;BME280;48597;49.030;1.822;2023-03-12T12:42:22;100506.81;;;20.97;40.15
62544;BME280;48597;49.030;1.822;2023-03-12T12:44:51;100503.16;;;20.96;40.13
62544;BME280;48597;49.030;1.822;2023-03-12T12:50:04;100497.88;;;20.95;40.37
62544;BME280;48597;49.030;1.822;2023-03-12T12:52:30;100485.63;;;20.94;40.35
62544;BME280;48597;49.030;1.822;2023-03-12T13:02:46;100484.81;;;20.94;40.42
62544;BME280;48597;49.030;1.822;2023-03-12T13:08:03;100464.44;;;20.92;40.41
62544;BME280;48597;49.030;1.822;2023-03-12T13:12:59;100466.03;;;20.93;40.36
62544;BME280;48597;49.030;1.822;2023-03-12T13:21:05;100475.09;;;20.91;40.40
62544;BME280;48597;49.030;1.822;2023-03-12T13:23:49;100477.16;;;20.91;40.45
62544;BME280;48597;49.030;1.822;2023-03-12T13:26:26;100479.22;;;20.90;40.48
62544;BME280;48597;49.030;1.822;2023-03-12T13:37:01;100462.19;;;20.87;40.30
62544;BME280;48597;49.030;1.822;2023-03-12T13:41:55;100452.81;;;20.86;40.36
62544;BME280;48597;49.030;1.822;2023-03-12T13:46:47;100447.53;;;20.85;40.60
62544;BME280;48597;49.030;1.822;2023-03-12T13:49:14;100437.69;;;20.86;40.53
62544;BME280;48597;49.030;1.822;2023-03-12T13:51:46;100424.63;;;20.85;40.57
62544;BME280;48597;49.030;1.822;2023-03-12T13:54:17;100439.75;;;20.85;40.68
62544;BME280;48597;49.030;1.822;2023-03-12T13:56:56;100438.13;;;20.84;40.65
62544;BME280;48597;49.030;1.822;2023-03-12T13:59:23;100437.81;;;20.82;40.61
62544;BME280;48597;49.030;1.822;2023-03-12T14:12:57;100417.41;;;20.80;40.80
62544;BME280;48597;49.030;1.822;2023-03-12T14:15:03;100412.50;;;20.81;40.94
62544;BME280;48597;49.030;1.822;2023-03-12T14:17:32;100412.50;;;20.81;40.81
62544;BME280;48597;49.030;1.822;2023-03-12T14:22:43;100397.38;;;20.80;40.79
62544;BME280;48597;49.030;1.822;2023-03-12T14:28:03;100409.28;;;20.79;40.81
62544;BME280;48597;49.030;1.822;2023-03-12T14:33:26;100404.81;;;20.78;40.88
62544;BME280;48597;49.030;1.822;2023-03-12T14:36:16;100403.25;;;20.77;40.98
62544;BME280;48597;49.030;1.822;2023-03-12T14:38:45;100399.09;;;20.78;41.28
62544;BME280;48597;49.030;1.822;2023-03-12T14:41:16;100416.28;;;20.78;41.24
62544;BME280;48597;49.030;1.822;2023-03-12T14:43:43;100419.94;;;20.78;41.21
62544;BME280;48597;49.030;1.822;2023-03-12T14:46:19;100424.88;;;20.78;41.23
62544;BME280;48597;49.030;1.822;2023-03-12T14:48:52;100422.00;;;20.78;41.40
62544;BME280;48597;49.030;1.822;2023-03-12T14:51:23;100401.97;;;20.78;41.24
62544;BME280;48597;49.030;1.822;2023-03-12T14:53:50;100429.03;;;20.77;41.53